Latest Weather Observations for Pearce

IDW60901

Issued at 9:51 am WST Saturday 25 March 2017 (issued every 10 minutes, with the page automatically refreshed every 10 minutes)

About weather observations | Map of Perth area stations | Latest observations for Perth area | Other Formats
Station Details ID: 009053 Name: PEARCE RAAF Lat: -31.67 Lon: 116.02 Height: 40.0 m
Data from the previous 72 hours. | See also: Recent months at Pearce
Date/Time
WST
Temp
°C
App
Temp
°C
Dew
Point
°C
Rel
Hum
%
Delta-T
°C
Wind Press
QNH
hPa
Press
MSL
hPa
Rain since
9am
mm
Dir  Spd
km/h
Gust
km/h
Spd
kts
Gust
kts
25/09:30am 22.4 20.7 14.8 62 4.5 E 17 24 9 13 1012.2 1012.0 0.0
25/09:00am 21.2 18.4 14.4 65 4.0 E 22 33 12 18 1012.2 1012.0 0.0
25/08:30am 20.4 19.7 14.3 68 3.6 ESE 11 19 6 10 1012.3 1012.1 0.0
25/08:00am 18.7 18.1 13.6 72 2.9 ESE 9 20 5 11 1012.5 1012.3 0.0
25/07:30am 18.2 17.1 14.3 78 2.2 SE 13 20 7 11 1012.6 1012.4 0.0
25/07:00am 16.9 15.2 13.6 81 1.9 SE 15 22 8 12 1012.7 1012.5 0.0
25/06:30am 16.6 14.9 13.7 83 1.6 ESE 15 26 8 14 1012.7 1012.5 0.0
25/06:00am 16.4 15.0 13.3 82 1.7 SE 13 24 7 13 1012.6 1012.4 0.0
25/05:30am 16.7 16.1 13.6 82 1.8 SE 9 17 5 9 1012.4 1012.2 0.0
25/05:00am 16.7 15.7 13.4 81 1.9 SSE 11 22 6 12 1012.4 1012.2 0.0
25/04:30am 17.2 15.8 13.5 79 2.1 ESE 13 22 7 12 1012.3 1012.1 0.0
25/04:00am 17.5 15.4 13.6 78 2.2 SE 17 24 9 13 1012.3 1012.1 0.0
25/03:30am 17.9 15.9 13.8 77 2.3 ESE 17 24 9 13 1012.1 1011.9 0.0
25/03:00am 18.1 16.8 13.8 76 2.5 ESE 13 22 7 12 1012.5 1012.3 0.0
25/02:30am 18.5 17.2 13.8 74 2.7 ESE 13 24 7 13 1012.6 1012.4 0.0
25/02:00am 18.6 17.6 13.5 72 2.9 E 11 19 6 10 1012.7 1012.5 0.0
25/01:30am 18.8 16.6 13.4 71 3.1 ESE 17 22 9 12 1012.7 1012.5 0.0
25/01:00am 18.3 18.0 13.4 73 2.8 E 7 13 4 7 1012.6 1012.4 0.0
25/12:30am 17.7 17.5 13.6 77 2.3 SSW 7 9 4 5 1012.8 1012.6 0.0
25/12:11am 17.0 16.9 13.3 79 2.1 SW 6 9 3 5 1012.9 1012.7 0.0
25/12:00am 16.6 17.7 13.5 82 1.7 CALM 0 0 0 0 1013.0 1012.8 0.0
 
Date/Time
WST
Temp
°C
App
Temp
°C
Dew
Point
°C
Rel
Hum
%
Delta-T
°C
Wind Press
QNH
hPa
Press
MSL
hPa
Rain since
9am
mm
Dir  Spd
km/h
Gust
km/h
Spd
kts
Gust
kts
24/11:48pm 17.0 18.2 13.7 81 1.9 CALM 0 0 0 0 1013.0 1012.8 0.0
24/11:30pm 17.1 18.4 14.0 82 1.8 CALM 0 0 0 0 1013.0 1012.8 0.0
24/11:00pm 16.5 17.9 14.5 88 1.1 CALM 0 0 0 0 1013.1 1012.9 0.0
24/10:30pm 16.5 18.0 14.7 89 1.0 CALM 0 0 0 0 1013.2 1013.0 0.0
24/10:00pm 16.3 16.7 14.7 90 0.9 SW 6 7 3 4 1013.3 1013.1 0.0
24/09:30pm 16.5 16.8 14.5 88 1.1 SW 6 7 3 4 1013.5 1013.3 0.0
24/09:00pm 18.1 19.8 15.2 83 1.7 CALM 0 0 0 0 1013.4 1013.2 0.0
24/08:30pm 19.3 21.4 16.2 82 1.9 CALM 0 6 0 3 1013.5 1013.3 0.0
24/08:00pm 20.0 20.9 16.2 79 2.3 SW 6 7 3 4 1013.6 1013.4 0.0
24/07:30pm 20.5 21.4 16.1 76 2.6 SW 6 7 3 4 1013.3 1013.1 0.0
24/07:00pm 20.9 21.3 16.3 75 2.8 SW 9 11 5 6 1013.1 1012.9 0.0
24/06:30pm 21.9 21.9 16.2 70 3.4 SW 11 15 6 8 1012.8 1012.6 0.0
24/06:00pm 23.2 22.7 15.8 63 4.5 SW 13 19 7 10 1012.5 1012.3 0.0
24/05:30pm 24.6 23.3 15.8 58 5.3 WSW 17 22 9 12 1012.1 1011.9 0.0
24/05:00pm 25.2 23.9 15.8 56 5.7 SW 17 26 9 14 1012.2 1012.0 0.0
24/04:30pm 25.8 24.2 16.1 55 5.9 SW 19 24 10 13 1012.1 1011.9 0.0
24/04:00pm 26.2 25.0 16.2 54 6.2 SW 17 24 9 13 1012.2 1012.0 0.0
24/03:30pm 26.9 25.7 12.9 42 8.2 SSE 11 17 6 9 1012.3 1012.1 0.0
24/03:00pm 26.7 25.2 12.0 40 8.5 SE 11 22 6 12 1012.4 1012.2 0.0
24/02:30pm 26.4 24.8 12.8 43 7.9 SSE 13 28 7 15 1012.6 1012.4 0.0
24/02:00pm 26.4 25.9 14.8 49 7.0 SSW 11 17 6 9 1012.8 1012.6 0.0
24/01:30pm 25.3 23.8 14.1 50 6.6 S 15 22 8 12 1013.2 1013.0 0.0
24/01:00pm 25.0 23.7 14.8 53 6.1 S 15 20 8 11 1013.8 1013.6 0.0
24/12:30pm 25.0 24.1 14.8 53 6.1 S 13 20 7 11 1014.4 1014.3 0.0
24/12:00pm 23.4 23.2 14.7 58 5.2 S 9 17 5 9 1015.2 1015.0 0.0
24/11:30am 23.3 22.5 15.1 60 4.9 S 13 20 7 11 1015.5 1015.3 0.0
24/11:00am 21.8 21.5 14.4 63 4.3 S 9 17 5 9 1015.8 1015.6 0.0
24/10:30am 22.1 22.3 15.7 67 3.8 S 9 17 5 9 1016.1 1015.9 0.0
24/10:00am 20.5 19.8 14.4 68 3.6 S 11 19 6 10 1016.6 1016.4 0.0
24/09:30am 19.4 19.1 14.4 73 2.9 SSE 9 15 5 8 1016.9 1016.7 0.0
24/09:00am 18.6 18.0 14.5 77 2.4 SSE 11 17 6 9 1016.7 1016.5 0.0
24/08:30am 17.8 18.1 15.1 84 1.6 SE 7 11 4 6 1016.5 1016.3 0.0
24/08:00am 17.0 17.0 15.3 90 1.0 SSE 9 13 5 7 1016.3 1016.1 0.0
24/07:30am 16.3 16.4 15.5 95 0.5 SE 9 17 5 9 1015.9 1015.7 0.0
24/07:12am 15.9 16.3 15.4 97 0.3 SSE 7 11 4 6 1015.6 1015.4 0.0
24/07:00am 15.5 15.8 15.0 97 0.3 S 7 9 4 5 1015.5 1015.3 0.0
24/06:30am 15.3 15.5 14.8 97 0.3 SSE 7 11 4 6 1015.4 1015.2 0.0
24/06:00am 15.0 15.1 14.5 97 0.3 S 7 13 4 7 1015.0 1014.8 0.0
24/05:30am 14.9 15.2 14.4 97 0.3 S 6 9 3 5 1014.7 1014.6 0.0
24/05:00am 14.8 14.5 14.3 97 0.3 S 9 11 5 6 1014.3 1014.2 0.0
24/04:30am 15.6 14.8 15.1 97 0.3 S 13 15 7 8 1014.1 1014.0 0.0
24/04:00am 15.8 15.8 15.2 96 0.3 S 9 13 5 7 1014.0 1013.9 0.0
24/03:32am 16.0 16.1 15.4 96 0.3 S 9 15 5 8 1014.0 1013.9 0.0
24/03:30am 15.9 15.9 15.3 96 0.3 S 9 11 5 6 1014.0 1013.9 0.0
24/03:02am 15.3 15.4 14.5 95 0.5 S 7 9 4 5 1014.1 1014.0 0.0
24/03:00am 15.0 15.0 14.2 95 0.5 S 7 9 4 5 1014.2 1014.1 0.0
24/02:56am 15.1 15.1 14.1 94 0.6 S 7 7 4 4 1014.2 1014.1 0.0
24/02:53am 15.0 14.9 14.0 94 0.6 S 7 7 4 4 1014.2 1014.1 0.0
24/02:30am 15.9 16.4 14.9 94 0.6 S 6 7 3 4 1014.2 1014.1 0.0
24/02:05am 16.1 17.8 15.1 94 0.6 CALM 0 6 0 3 1014.3 1014.2 0.0
24/02:00am 15.7 17.2 14.6 93 0.6 CALM 0 0 0 0 1014.3 1014.2 0.0
24/01:38am 16.3 17.6 15.2 93 0.6 S 2 6 1 3 1014.3 1014.2 0.0
24/01:30am 16.3 17.2 15.2 93 0.6 S 4 6 2 3 1014.3 1014.2 0.0
24/01:00am 16.4 16.7 15.1 92 0.8 S 7 9 4 5 1014.5 1014.4 0.0
24/12:52am 16.3 16.2 15.0 92 0.8 S 9 11 5 6 1014.5 1014.4 0.0
24/12:30am 16.4 15.5 14.9 91 0.9 S 13 15 7 8 1014.5 1014.4 0.0
24/12:29am 16.3 15.4 14.8 91 0.9 S 13 15 7 8 1014.5 1014.4 0.0
24/12:00am 16.8 17.4 15.3 91 0.9 S 6 9 3 5 1014.5 1014.4 0.0
 
Date/Time
WST
Temp
°C
App
Temp
°C
Dew
Point
°C
Rel
Hum
%
Delta-T
°C
Wind Press
QNH
hPa
Press
MSL
hPa
Rain since
9am
mm
Dir  Spd
km/h
Gust
km/h
Spd
kts
Gust
kts
23/11:30pm 16.7 17.1 15.2 91 0.9 S 7 13 4 7 1014.5 1014.4 0.0
23/11:20pm 16.9 17.1 15.8 93 0.6 SSW 9 17 5 9 1014.5 1014.4 0.0
23/11:00pm 16.0 17.1 14.5 91 0.9 SSW 2 6 1 3 1014.6 1014.5 0.0
23/10:30pm 16.3 16.6 14.5 89 1.0 SSW 6 7 3 4 1014.8 1014.7 0.0
23/10:00pm 17.0 17.9 15.2 89 1.0 SSW 4 6 2 3 1014.8 1014.7 0.0
23/09:30pm 16.7 18.3 14.9 89 1.0 CALM 0 6 0 3 1014.8 1014.7 0.0
23/09:00pm 16.8 16.6 14.6 87 1.3 SSW 9 13 5 7 1014.7 1014.6 0.0
23/08:30pm 17.1 16.9 14.7 86 1.4 SSW 9 13 5 7 1014.7 1014.6 0.0
23/08:00pm 17.6 16.7 14.9 84 1.6 SSW 13 17 7 9 1014.6 1014.5 0.0
23/07:30pm 17.8 16.9 14.9 83 1.7 SSW 13 17 7 9 1014.4 1014.3 0.0
23/07:00pm 18.5 17.7 15.2 81 1.9 SSW 13 19 7 10 1014.1 1014.0 0.0
23/06:30pm 19.3 17.3 15.4 78 2.3 SSW 20 24 11 13 1013.7 1013.5 0.0
23/06:00pm 20.0 17.9 14.6 71 3.2 SSW 19 28 10 15 1013.4 1013.2 0.0
23/05:30pm 21.2 18.1 14.4 65 4.0 SSW 24 32 13 17 1013.3 1013.1 0.0
23/05:00pm 21.9 19.2 14.5 63 4.4 SSW 22 32 12 17 1013.0 1012.8 0.0
23/04:30pm 21.3 18.1 14.2 64 4.1 SSW 24 30 13 16 1012.9 1012.7 0.0
23/04:00pm 23.1 19.7 14.7 59 5.0 SSW 26 37 14 20 1012.7 1012.5 0.0
23/03:30pm 21.8 17.9 15.6 68 3.7 SSW 30 39 16 21 1012.6 1012.4 0.0
23/03:00pm 24.1 20.6 14.5 55 5.7 SW 26 37 14 20 1012.3 1012.1 0.0
23/02:30pm 22.7 20.7 15.0 61 4.6 SSW 19 24 10 13 1012.3 1012.1 0.0
23/02:00pm 23.5 20.9 15.0 59 5.1 WSW 22 30 12 16 1012.5 1012.3 0.0
23/01:30pm 20.8 17.9 15.1 70 3.4 SW 24 35 13 19 1012.7 1012.5 0.0
23/01:00pm 22.4 20.2 15.0 63 4.4 SW 20 28 11 15 1012.8 1012.6 0.0
23/12:30pm 22.9 20.6 14.7 60 4.9 SW 20 30 11 16 1013.0 1012.8 0.0
23/12:00pm 21.8 19.8 14.9 65 4.1 SSW 19 26 10 14 1013.3 1013.1 0.0
23/11:30am 20.7 19.3 15.5 72 3.1 SSW 17 24 9 13 1013.6 1013.4 0.0
23/11:00am 20.8 18.5 14.7 68 3.6 SSW 20 26 11 14 1013.7 1013.5 0.0
23/10:30am 21.4 19.8 15.0 67 3.8 SSW 17 24 9 13 1013.8 1013.6 0.0
23/10:00am 20.7 19.4 15.7 73 3.0 SW 17 20 9 11 1013.8 1013.6 0.0
23/09:30am 19.9 19.5 16.2 79 2.2 SW 13 19 7 10 1013.8 1013.6 0.0
23/09:00am 19.7 18.6 16.3 81 2.0 SSW 17 24 9 13 1013.8 1013.6 0.0
23/08:30am 18.8 18.0 16.2 85 1.6 S 15 20 8 11 1013.8 1013.6 0.0
23/08:00am 18.0 19.0 16.9 93 0.7 S 7 11 4 6 1013.5 1013.3 0.0
23/07:30am 17.0 19.1 16.2 95 0.5 CALM 0 7 0 4 1013.3 1013.1 0.0
23/07:07am 16.8 18.9 16.2 96 0.4 CALM 0 0 0 0 1013.1 1012.9 0.0
23/07:00am 16.4 18.3 15.8 96 0.4 CALM 0 6 0 3 1013.0 1012.8 0.0
23/06:41am 15.7 16.2 14.9 95 0.5 WNW 6 7 3 4 1012.7 1012.5 0.0
23/06:30am 16.1 16.8 15.5 96 0.3 WNW 6 7 3 4 1012.5 1012.3 0.0
23/06:00am 15.9 16.2 15.1 95 0.5 WNW 7 9 4 5 1012.3 1012.1 0.0
23/05:30am 16.6 17.2 15.8 95 0.5 WNW 7 9 4 5 1012.1 1011.9 0.0
23/05:10am 16.7 17.5 15.9 95 0.5 NW 6 9 3 5 1011.9 1011.7 0.0
23/05:00am 16.6 17.4 15.8 95 0.5 NNW 6 7 3 4 1011.8 1011.6 0.0
23/04:52am 16.7 17.5 15.9 95 0.5 NNW 6 7 3 4 1011.7 1011.5 0.0
23/04:30am 17.0 17.9 16.2 95 0.5 NNW 6 7 3 4 1011.6 1011.4 0.0
23/04:00am 17.2 17.6 16.4 95 0.5 N 9 9 5 5 1011.2 1011.0 0.0
23/03:30am 17.5 18.1 16.7 95 0.5 NNW 9 13 5 7 1011.0 1010.8 0.0
23/03:00am 17.4 17.9 16.6 95 0.5 N 9 13 5 7 1011.1 1010.9 0.0
23/02:30am 17.4 17.2 16.6 95 0.5 N 13 17 7 9 1011.0 1010.8 0.0
23/02:00am 17.6 17.4 16.6 94 0.6 NNW 13 17 7 9 1011.0 1010.8 0.0
23/01:30am 17.6 17.0 16.6 94 0.6 N 15 17 8 9 1011.0 1010.8 0.0
23/01:00am 17.5 16.8 16.5 94 0.6 N 15 20 8 11 1011.0 1010.8 0.0
23/12:30am 17.6 17.4 16.6 94 0.6 N 13 17 7 9 1011.0 1010.8 0.0
23/12:00am 17.6 17.4 16.6 94 0.6 N 13 15 7 8 1011.0 1010.8 0.0
 
Date/Time
WST
Temp
°C
App
Temp
°C
Dew
Point
°C
Rel
Hum
%
Delta-T
°C
Wind Press
QNH
hPa
Press
MSL
hPa
Rain since
9am
mm
Dir  Spd
km/h
Gust
km/h
Spd
kts
Gust
kts
22/11:30pm 17.5 17.2 16.4 93 0.7 N 13 17 7 9 1011.1 1010.9 0.0
22/11:00pm 17.6 17.3 16.5 93 0.7 NNW 13 19 7 10 1011.2 1011.0 0.0
22/10:30pm 17.4 17.0 16.1 92 0.8 NNW 13 17 7 9 1011.4 1011.2 0.0
22/10:00pm 17.7 16.9 16.2 91 0.9 NNW 15 19 8 10 1011.3 1011.1 0.0
22/09:30pm 17.8 17.4 16.3 91 0.9 N 13 15 7 8 1011.4 1011.2 0.0
22/09:00pm 18.0 17.3 16.3 90 1.0 N 15 19 8 10 1011.3 1011.1 0.0
22/08:30pm 18.0 17.7 16.5 91 0.9 N 13 15 7 8 1011.1 1010.9 0.0
22/08:00pm 18.0 18.1 16.5 91 0.9 N 11 13 6 7 1010.8 1010.6 0.0
22/07:30pm 18.2 18.7 16.5 90 1.0 NNW 9 11 5 6 1010.3 1010.1 0.0
22/07:00pm 18.6 18.7 16.6 88 1.2 NNW 11 15 6 8 1010.2 1010.0 0.0
22/06:30pm 18.9 18.1 16.1 84 1.7 WNW 15 20 8 11 1009.9 1009.7 0.0
22/06:00pm 20.6 18.2 15.4 72 3.1 WNW 22 28 12 15 1009.6 1009.4 0.0
22/05:30pm 21.6 17.7 14.5 64 4.2 WNW 28 37 15 20 1009.3 1009.1 0.0
22/05:00pm 22.4 18.7 15.0 63 4.4 WNW 28 35 15 19 1009.1 1008.9 0.0
22/04:30pm 22.6 18.5 13.9 58 5.1 WNW 28 39 15 21 1008.8 1008.6 0.0
22/04:00pm 23.7 19.1 14.7 57 5.4 WNW 32 41 17 22 1008.5 1008.3 0.0
22/03:30pm 24.4 20.4 14.2 53 6.0 WNW 28 41 15 22 1008.4 1008.2 0.0
22/03:00pm 23.8 19.7 14.8 57 5.4 WNW 30 37 16 20 1008.3 1008.1 0.0
22/02:30pm 23.9 19.9 14.0 54 5.8 WNW 28 39 15 21 1008.1 1007.9 0.0
22/02:00pm 25.4 20.9 13.9 49 6.8 WNW 30 39 16 21 1008.0 1007.8 0.0
22/01:30pm 24.8 21.1 16.0 58 5.4 WNW 30 39 16 21 1008.1 1007.9 0.0
22/01:00pm 25.7 22.2 15.4 53 6.3 NW 28 39 15 21 1008.0 1007.8 0.0
22/12:30pm 25.4 21.2 15.7 55 5.9 NW 32 39 17 21 1008.2 1008.0 0.0
22/12:00pm 24.6 20.8 15.8 58 5.4 WNW 30 37 16 20 1008.4 1008.2 0.0
22/11:30am 24.6 19.9 14.4 53 6.1 NW 32 39 17 21 1008.6 1008.4 0.0
22/11:00am 23.2 18.9 14.5 58 5.2 WNW 30 50 16 27 1008.7 1008.5 0.0
22/10:54am 24.3 20.7 15.2 57 5.5 WNW 28 50 15 27 1008.7 1008.5 0.0
22/10:30am 22.5 20.0 16.1 67 3.9 WNW 24 33 13 18 1008.9 1008.7 0.0
22/10:00am 22.7 19.0 16.0 66 4.1 NW 30 41 16 22 1008.7 1008.5 0.0

Latest Capital City Observations: Canberra | Sydney | Melbourne | Brisbane | Adelaide | Perth | Hobart | Darwin

Other Formats:

Comma delimited format used in spreadsheet applications
http://www.bom.gov.au/fwo/IDW60901/IDW60901.94612.axf

JavaScript Object Notation format (JSON) in row-major order
http://www.bom.gov.au/fwo/IDW60901/IDW60901.94612.json